Terminal Aerodrome Forecast
Issued by NWS

Home | Current Version | Previous Version | Text Only | Print | Product List | Glossary On
Versions: 1 2 3 4 5 6 7 8 9 10 11 12 13 14 15 16 17 18 19 20
000
FTUS44 KSJT 200500
TAFSOA
TAF
KSOA 200520Z 2006/2106 VRB04KT P6SM SKC
     FM200700 VRB04KT 4SM BR OVC015
     FM201200 VRB04KT 2SM BR OVC015
     FM201600 VRB04KT P6SM BKN250=

USA.gov is the U.S. government's official web portal to all federal, state and local government web resources and services.